Time;durP1;ratioP1;P1;durP2;ratioP2;P2;SDS_P1;SDS_P2;PMS_P1;PMS_P2;Temp;Humidity;BMP_temperature;BMP_pressure;BME280_temperature;BME280_humidity;BME280_pressure;Samples;Min_cycle;Max_cycle;Signal;HPM_P1;HPM_P2
2023/02/22 00:01:46;;;;;;;9.47;5.73;;;7.70;99.90;;;;;;5045272;28;20222;-73
2023/02/22 00:04:18;;;;;;;7.67;5.60;;;7.70;99.90;;;;;;5043351;28;20192;-73
2023/02/22 00:06:46;;;;;;;8.43;5.83;;;7.70;99.90;;;;;;5046758;28;20208;-73
2023/02/22 00:09:19;;;;;;;7.20;5.77;;;7.70;99.90;;;;;;5044623;28;20195;-73
2023/02/22 00:11:47;;;;;;;10.30;6.97;;;7.70;99.90;;;;;;5043761;28;20200;-73
2023/02/22 00:14:14;;;;;;;9.33;6.67;;;7.80;99.90;;;;;;5044157;28;20215;-73
2023/02/22 00:16:40;;;;;;;9.97;6.70;;;7.70;99.90;;;;;;5045120;28;20295;-73
2023/02/22 00:19:09;;;;;;;9.67;6.57;;;7.80;99.90;;;;;;5043057;28;20615;-73
2023/02/22 00:21:36;;;;;;;8.60;6.60;;;7.80;99.90;;;;;;5044329;28;20234;-73
2023/02/22 00:24:21;;;;;;;8.73;6.73;;;7.90;99.90;;;;;;5045101;28;20203;-73
2023/02/22 00:26:52;;;;;;;10.80;7.30;;;7.90;99.90;;;;;;5061428;28;20287;-73
2023/02/22 00:29:19;;;;;;;8.77;7.27;;;7.90;99.90;;;;;;5044402;28;20759;-73
2023/02/22 00:31:45;;;;;;;10.10;7.43;;;7.90;99.90;;;;;;5044606;28;20533;-73
2023/02/22 00:34:13;;;;;;;9.93;7.50;;;7.90;99.90;;;;;;5045634;28;20207;-73
2023/02/22 00:36:48;;;;;;;8.83;7.20;;;8.00;99.90;;;;;;5045218;28;20206;-73
2023/02/22 00:39:15;;;;;;;8.03;7.10;;;8.00;99.90;;;;;;5044352;28;20257;-73
2023/02/22 00:41:41;;;;;;;9.37;7.33;;;8.00;99.90;;;;;;5044532;28;20195;-73
2023/02/22 00:44:09;;;;;;;9.47;7.17;;;8.10;99.90;;;;;;5044284;28;20275;-73
2023/02/22 00:46:36;;;;;;;12.30;7.53;;;8.10;99.90;;;;;;5045354;28;20253;-73
2023/02/22 00:49:04;;;;;;;10.97;7.27;;;8.10;99.90;;;;;;5040766;28;20209;-73
2023/02/22 00:51:30;;;;;;;8.60;7.73;;;8.10;99.90;;;;;;5045275;28;20198;-73
2023/02/22 00:53:56;;;;;;;9.50;7.30;;;8.10;99.90;;;;;;5044334;28;20202;-73
2023/02/22 00:56:22;;;;;;;8.90;7.60;;;8.10;99.90;;;;;;5044677;28;20192;-73
2023/02/22 00:58:51;;;;;;;8.87;7.47;;;8.10;99.90;;;;;;5045205;28;20194;-73
2023/02/22 01:01:17;;;;;;;9.77;7.67;;;8.10;99.90;;;;;;5046108;28;20192;-73
2023/02/22 01:03:48;;;;;;;8.63;7.00;;;8.20;99.90;;;;;;5060920;28;20286;-73
2023/02/22 01:06:14;;;;;;;10.53;8.10;;;8.20;99.90;;;;;;5043077;28;20203;-73
2023/02/22 01:08:44;;;;;;;11.20;8.03;;;8.20;99.90;;;;;;5043622;28;20191;-73
2023/02/22 01:11:11;;;;;;;8.83;7.47;;;8.20;99.90;;;;;;5060203;28;20187;-73
2023/02/22 01:13:37;;;;;;;9.10;7.27;;;8.20;99.90;;;;;;5058391;28;22338;-73
2023/02/22 01:16:07;;;;;;;10.50;7.30;;;8.20;99.90;;;;;;5041900;28;20298;-73
2023/02/22 01:18:35;;;;;;;7.87;6.90;;;8.20;99.90;;;;;;5043573;28;20222;-73
2023/02/22 01:21:03;;;;;;;8.83;7.43;;;8.20;99.90;;;;;;5042564;28;20215;-73
2023/02/22 01:23:31;;;;;;;8.17;7.10;;;8.20;99.90;;;;;;5049559;28;20626;-73
2023/02/22 01:25:57;;;;;;;12.07;7.37;;;8.20;99.90;;;;;;5042830;28;20237;-73
2023/02/22 01:28:24;;;;;;;11.63;7.47;;;8.20;99.90;;;;;;5043794;28;20215;-73
2023/02/22 01:30:51;;;;;;;9.10;6.47;;;8.20;99.90;;;;;;5044506;28;20188;-73
2023/02/22 01:33:17;;;;;;;9.27;6.70;;;8.10;99.90;;;;;;5044000;28;20532;-73
2023/02/22 01:35:45;;;;;;;7.77;6.97;;;8.10;99.90;;;;;;5044498;28;22101;-73
2023/02/22 01:38:13;;;;;;;8.43;6.67;;;8.20;99.90;;;;;;5044313;28;20238;-73
2023/02/22 01:40:45;;;;;;;8.17;6.97;;;8.20;99.90;;;;;;5043713;28;20897;-73
2023/02/22 01:43:19;;;;;;;7.33;6.30;;;8.20;99.90;;;;;;5045381;28;20191;-73
2023/02/22 01:46:19;;;;;;;8.07;6.67;;;8.10;99.90;;;;;;5044485;28;21004;-73
2023/02/22 01:49:09;;;;;;;8.87;6.70;;;8.10;99.90;;;;;;5060410;28;20195;-73
2023/02/22 01:51:51;;;;;;;7.20;5.90;;;8.10;99.90;;;;;;5059633;28;20203;-73
2023/02/22 01:54:24;;;;;;;9.17;6.03;;;8.00;99.90;;;;;;5047480;28;20298;-73
2023/02/22 01:57:15;;;;;;;6.33;5.70;;;7.90;99.90;;;;;;5043382;28;20253;-73
2023/02/22 01:59:48;;;;;;;6.40;5.07;;;7.60;99.90;;;;;;5042316;28;20191;-73
2023/02/22 02:02:20;;;;;;;6.43;5.50;;;7.50;99.90;;;;;;5043196;28;20184;-73
2023/02/22 02:04:48;;;;;;;6.80;5.53;;;7.50;99.90;;;;;;5042916;28;20533;-73
2023/02/22 02:07:19;;;;;;;6.57;5.63;;;7.40;99.90;;;;;;5044075;28;20195;-73
2023/02/22 02:10:03;;;;;;;7.50;5.17;;;7.30;99.90;;;;;;5040900;28;20253;-73
2023/02/22 02:12:34;;;;;;;7.97;5.63;;;7.20;99.90;;;;;;5045275;28;20226;-73
2023/02/22 02:15:18;;;;;;;7.70;5.20;;;7.20;99.90;;;;;;5043422;28;20192;-73
2023/02/22 02:17:45;;;;;;;5.70;4.93;;;7.20;99.90;;;;;;5043401;28;22225;-73
2023/02/22 02:20:28;;;;;;;6.67;5.60;;;7.30;99.90;;;;;;5044978;28;20207;-73
2023/02/22 02:23:42;;;;;;;8.47;5.50;;;7.30;99.90;;;;;;5060413;28;20696;-73
2023/02/22 02:27:09;;;;;;;7.70;5.57;;;7.30;99.90;;;;;;5025170;28;20222;-73
2023/02/22 02:30:21;;;;;;;6.70;5.50;;;7.30;99.90;;;;;;5037284;28;20195;-73
2023/02/22 02:33:02;;;;;;;7.13;5.40;;;7.20;99.90;;;;;;5044514;28;20239;-73
2023/02/22 02:35:54;;;;;;;7.03;5.70;;;7.20;99.90;;;;;;5043973;28;20310;-73
2023/02/22 02:38:42;;;;;;;8.27;6.00;;;7.20;99.90;;;;;;5040742;28;20549;-73
2023/02/22 02:41:46;;;;;;;8.03;5.90;;;7.30;99.90;;;;;;5044072;28;20628;-73
2023/02/22 02:44:38;;;;;;;6.33;5.47;;;7.30;99.90;;;;;;5054770;28;20568;-73
2023/02/22 02:47:16;;;;;;;6.40;5.70;;;7.30;99.90;;;;;;5042574;28;20200;-74
2023/02/22 02:50:00;;;;;;;9.27;5.70;;;7.40;99.90;;;;;;5075334;28;20595;-74
2023/02/22 02:52:30;;;;;;;6.93;5.07;;;7.40;99.90;;;;;;5044115;28;20325;-74
2023/02/22 02:54:58;;;;;;;5.80;5.20;;;7.40;99.90;;;;;;5042939;28;20667;-74
2023/02/22 02:57:24;;;;;;;8.63;5.70;;;7.40;99.90;;;;;;5043026;28;20183;-74
2023/02/22 02:59:50;;;;;;;8.27;5.53;;;7.40;99.90;;;;;;5038854;28;20256;-74
2023/02/22 03:02:51;;;;;;;7.33;5.60;;;7.40;99.90;;;;;;5043627;28;20187;-74
2023/02/22 03:05:42;;;;;;;6.37;4.97;;;7.40;99.90;;;;;;5053918;28;20203;-74
2023/02/22 03:08:23;;;;;;;6.87;5.87;;;7.40;99.90;;;;;;5043081;28;20246;-74
2023/02/22 03:11:13;;;;;;;6.30;5.50;;;7.40;99.90;;;;;;5057090;28;20259;-74
2023/02/22 03:14:08;;;;;;;5.93;4.97;;;7.40;99.90;;;;;;5057563;28;20931;-74
2023/02/22 03:16:49;;;;;;;6.57;5.37;;;7.40;99.90;;;;;;5039260;28;20335;-74
2023/02/22 03:19:48;;;;;;;5.37;4.87;;;7.40;99.90;;;;;;5057067;28;20187;-74
2023/02/22 03:22:25;;;;;;;7.03;5.17;;;7.30;99.90;;;;;;5038974;28;20199;-74
2023/02/22 03:25:07;;;;;;;5.40;4.90;;;7.20;99.90;;;;;;5041674;28;20218;-74
2023/02/22 03:27:45;;;;;;;6.93;5.03;;;7.20;99.90;;;;;;5036315;28;20924;-74
2023/02/22 03:30:58;;;;;;;6.53;4.77;;;7.20;99.90;;;;;;5040156;28;20661;-74
2023/02/22 03:33:53;;;;;;;6.23;4.73;;;7.10;99.90;;;;;;5044330;28;20213;-74
2023/02/22 03:36:29;;;;;;;6.57;4.80;;;7.10;99.90;;;;;;5045843;28;20199;-74
2023/02/22 03:38:59;;;;;;;6.17;5.07;;;7.20;99.90;;;;;;5041818;28;20773;-74
2023/02/22 03:41:28;;;;;;;8.60;5.20;;;7.30;99.90;;;;;;5042885;28;20183;-74
2023/02/22 03:44:19;;;;;;;10.63;6.33;;;7.20;99.90;;;;;;5034258;28;20195;-74
2023/02/22 03:46:51;;;;;;;7.17;5.10;;;7.20;99.90;;;;;;5045605;28;20192;-74
2023/02/22 03:49:35;;;;;;;7.20;4.63;;;7.30;99.90;;;;;;5050567;28;20604;-74
2023/02/22 03:52:03;;;;;;;6.63;5.10;;;7.30;99.90;;;;;;5038121;28;20219;-74
2023/02/22 03:54:32;;;;;;;8.73;5.17;;;7.30;99.90;;;;;;5036153;28;20289;-74
2023/02/22 03:57:18;;;;;;;6.53;4.90;;;7.30;99.90;;;;;;5047008;28;20205;-74
2023/02/22 03:59:46;;;;;;;6.77;5.43;;;7.30;99.90;;;;;;5041219;28;20203;-74
2023/02/22 04:02:12;;;;;;;7.83;5.50;;;7.30;99.90;;;;;;5039379;28;20759;-74
2023/02/22 04:04:40;;;;;;;8.60;5.43;;;7.30;99.90;;;;;;5035931;28;20188;-74
2023/02/22 04:07:06;;;;;;;7.33;5.27;;;7.20;99.90;;;;;;5043944;28;20285;-74
2023/02/22 04:09:33;;;;;;;9.60;5.17;;;7.10;99.90;;;;;;5040896;28;20218;-74
2023/02/22 04:11:59;;;;;;;6.87;5.40;;;7.00;99.90;;;;;;5034904;28;21398;-74
2023/02/22 04:14:25;;;;;;;7.63;5.40;;;6.90;99.90;;;;;;5060271;28;20234;-74
2023/02/22 04:16:51;;;;;;;10.17;5.90;;;6.90;99.90;;;;;;5040339;28;20191;-74
2023/02/22 04:19:27;;;;;;;6.47;5.47;;;6.90;99.90;;;;;;5025139;28;20191;-74
2023/02/22 04:22:01;;;;;;;7.07;5.77;;;6.90;99.90;;;;;;5045493;28;20203;-74
2023/02/22 04:24:27;;;;;;;12.57;5.93;;;6.90;99.90;;;;;;5042284;28;20742;-74
2023/02/22 04:26:54;;;;;;;7.97;5.57;;;6.80;99.90;;;;;;5044704;28;20290;-74
2023/02/22 04:29:20;;;;;;;5.87;5.10;;;6.80;99.90;;;;;;5061043;28;20201;-74
2023/02/22 04:31:47;;;;;;;7.40;5.40;;;6.80;99.90;;;;;;5043536;28;20252;-74
2023/02/22 04:34:13;;;;;;;9.33;6.23;;;6.80;99.90;;;;;;5044435;28;20697;-74
2023/02/22 04:36:43;;;;;;;6.33;5.33;;;6.80;99.90;;;;;;5043457;28;20853;-74
2023/02/22 04:39:09;;;;;;;7.67;5.63;;;6.90;99.90;;;;;;5046111;28;20196;-74
2023/02/22 04:41:36;;;;;;;7.37;5.77;;;6.90;99.90;;;;;;5043833;28;20257;-74
2023/02/22 04:44:02;;;;;;;8.37;5.47;;;7.00;99.90;;;;;;5043973;28;20191;-74
2023/02/22 04:46:30;;;;;;;7.30;5.80;;;7.00;99.90;;;;;;5043979;28;20192;-74
2023/02/22 04:48:56;;;;;;;8.13;5.50;;;7.10;99.90;;;;;;5044827;28;20206;-74
2023/02/22 04:51:23;;;;;;;8.03;6.10;;;7.10;99.90;;;;;;5058800;28;20194;-74
2023/02/22 04:53:49;;;;;;;6.77;5.60;;;7.10;99.90;;;;;;5044238;28;20219;-74
2023/02/22 04:56:19;;;;;;;7.10;5.57;;;7.10;99.90;;;;;;5042993;28;20534;-74
2023/02/22 04:58:46;;;;;;;8.67;6.00;;;7.20;99.90;;;;;;5056821;28;20230;-74
2023/02/22 05:01:15;;;;;;;5.57;4.90;;;7.20;99.90;;;;;;5043238;28;20187;-74
2023/02/22 05:03:44;;;;;;;6.97;5.53;;;7.30;99.90;;;;;;5057862;28;20195;-74
2023/02/22 05:06:11;;;;;;;6.33;4.97;;;7.30;99.90;;;;;;5043458;28;20298;-74
2023/02/22 05:08:37;;;;;;;7.37;5.60;;;7.30;99.90;;;;;;5057151;28;20647;-74
2023/02/22 05:11:04;;;;;;;8.80;5.20;;;7.50;99.90;;;;;;5045591;28;20191;-74
2023/02/22 05:13:31;;;;;;;6.00;5.17;;;7.50;99.90;;;;;;5043677;28;20219;-74
2023/02/22 05:15:57;;;;;;;6.93;5.37;;;7.50;99.90;;;;;;5045060;28;20581;-74
2023/02/22 05:18:23;;;;;;;7.63;5.30;;;7.70;99.90;;;;;;5045092;28;20316;-74
2023/02/22 05:20:49;;;;;;;6.37;5.20;;;7.70;99.90;;;;;;5040059;28;20227;-74
2023/02/22 05:23:16;;;;;;;7.10;4.53;;;7.70;99.90;;;;;;5047651;28;20549;-74
2023/02/22 05:25:43;;;;;;;6.53;5.23;;;7.60;99.90;;;;;;5055826;28;20222;-74
2023/02/22 05:28:14;;;;;;;6.73;5.33;;;7.60;99.90;;;;;;5042718;28;20199;-74
2023/02/22 05:30:40;;;;;;;8.13;5.60;;;7.60;99.90;;;;;;5041412;28;20281;-74
2023/02/22 05:33:09;;;;;;;7.83;5.57;;;7.60;99.90;;;;;;5059395;28;20211;-74
2023/02/22 05:35:36;;;;;;;5.77;4.87;;;7.60;99.90;;;;;;5042146;28;20223;-74
2023/02/22 05:38:03;;;;;;;6.43;5.00;;;7.50;99.90;;;;;;5060451;28;20712;-74
2023/02/22 05:40:31;;;;;;;7.77;5.13;;;7.50;99.90;;;;;;5043906;28;20799;-74
2023/02/22 05:42:59;;;;;;;7.07;5.13;;;7.60;99.90;;;;;;5043677;28;20206;-74
2023/02/22 05:45:27;;;;;;;7.03;5.20;;;7.60;99.90;;;;;;5043757;28;20257;-74
2023/02/22 05:47:55;;;;;;;7.33;5.03;;;7.60;99.90;;;;;;5038028;28;20272;-74
2023/02/22 05:50:21;;;;;;;8.90;5.37;;;7.70;99.90;;;;;;5041031;28;20301;-74
2023/02/22 05:52:48;;;;;;;4.77;4.23;;;7.80;99.90;;;;;;5058866;28;20311;-74
2023/02/22 05:55:17;;;;;;;6.83;5.30;;;7.90;99.90;;;;;;5042403;28;20269;-74
2023/02/22 05:57:44;;;;;;;6.87;5.57;;;8.00;99.90;;;;;;5044990;28;20190;-74
2023/02/22 06:00:28;;;;;;;8.63;4.90;;;8.00;99.90;;;;;;5040357;28;20197;-74
2023/02/22 06:03:02;;;;;;;6.43;5.27;;;8.10;99.90;;;;;;5042173;28;20906;-74
2023/02/22 06:05:29;;;;;;;7.83;5.40;;;8.30;99.90;;;;;;5039668;28;20234;-74
2023/02/22 06:07:57;;;;;;;5.80;4.93;;;8.20;99.90;;;;;;5048141;28;20572;-74
2023/02/22 06:10:23;;;;;;;6.27;5.20;;;8.10;99.90;;;;;;5042462;28;20373;-74
2023/02/22 06:12:51;;;;;;;6.97;5.33;;;8.00;99.90;;;;;;5061875;28;20310;-74
2023/02/22 06:15:20;;;;;;;7.50;5.53;;;8.00;99.90;;;;;;5045269;28;20211;-74
2023/02/22 06:17:47;;;;;;;6.30;5.33;;;8.10;99.90;;;;;;5040620;28;20207;-74
2023/02/22 06:20:18;;;;;;;6.10;5.20;;;8.10;99.90;;;;;;5038716;28;20800;-74
2023/02/22 06:22:48;;;;;;;5.67;4.93;;;8.20;99.90;;;;;;5039426;28;20674;-74
2023/02/22 06:25:18;;;;;;;7.37;4.97;;;8.20;99.90;;;;;;5040989;28;20599;-74
2023/02/22 06:27:45;;;;;;;6.27;5.17;;;8.20;99.90;;;;;;5042238;28;20195;-74
2023/02/22 06:30:15;;;;;;;5.27;4.40;;;8.20;99.90;;;;;;5038929;28;20647;-74
2023/02/22 06:32:41;;;;;;;9.07;5.80;;;8.30;99.90;;;;;;5039791;28;20184;-74
2023/02/22 06:35:07;;;;;;;6.97;5.10;;;8.30;99.90;;;;;;5024442;28;20230;-74
2023/02/22 06:37:34;;;;;;;9.03;5.47;;;8.20;99.90;;;;;;5044115;28;20715;-74
2023/02/22 06:40:01;;;;;;;6.73;4.90;;;8.10;99.90;;;;;;5041418;28;20537;-74
2023/02/22 06:42:27;;;;;;;6.17;4.73;;;8.10;99.90;;;;;;5042892;28;20196;-74
2023/02/22 06:44:54;;;;;;;5.67;4.67;;;8.10;99.90;;;;;;5044890;28;20536;-74
2023/02/22 06:47:20;;;;;;;5.83;4.60;;;8.10;99.90;;;;;;5042635;28;20210;-74
2023/02/22 06:49:56;;;;;;;6.83;4.80;;;8.20;99.90;;;;;;5056109;28;20191;-74
2023/02/22 06:52:23;;;;;;;6.87;4.80;;;8.30;99.90;;;;;;5037987;28;20183;-74
2023/02/22 06:54:50;;;;;;;6.80;4.60;;;8.30;99.90;;;;;;5035035;28;20220;-74
2023/02/22 06:57:17;;;;;;;7.13;4.87;;;8.30;99.90;;;;;;5041139;28;20195;-74
2023/02/22 06:59:45;;;;;;;6.23;4.73;;;8.40;99.90;;;;;;5044132;28;20695;-74
2023/02/22 07:02:12;;;;;;;5.97;4.77;;;8.30;99.90;;;;;;5041257;28;20198;-74
2023/02/22 07:04:41;;;;;;;6.33;4.80;;;8.30;99.90;;;;;;5039352;28;20381;-74
2023/02/22 07:07:07;;;;;;;9.33;4.30;;;8.50;99.90;;;;;;5041396;28;20191;-74
2023/02/22 07:09:33;;;;;;;7.30;4.67;;;8.60;99.90;;;;;;5038195;28;20191;-74
2023/02/22 07:12:00;;;;;;;6.57;4.53;;;8.70;99.90;;;;;;5037898;28;20207;-74
2023/02/22 07:14:26;;;;;;;5.90;4.80;;;8.70;99.90;;;;;;5037798;28;20211;-74
2023/02/22 07:16:52;;;;;;;5.83;4.47;;;8.80;99.90;;;;;;5053853;28;20207;-74
2023/02/22 07:19:18;;;;;;;6.03;4.50;;;8.90;99.90;;;;;;5042167;28;20278;-74
2023/02/22 07:21:46;;;;;;;6.63;4.20;;;9.00;99.90;;;;;;5039594;28;20188;-74
2023/02/22 07:24:13;;;;;;;5.87;4.00;;;9.00;99.90;;;;;;5039235;28;20373;-74
2023/02/22 07:26:41;;;;;;;6.20;4.23;;;8.90;99.90;;;;;;5039657;28;20203;-74
2023/02/22 07:29:10;;;;;;;5.10;4.30;;;9.00;99.90;;;;;;5037194;28;20195;-74
2023/02/22 07:31:37;;;;;;;6.60;5.30;;;9.20;99.90;;;;;;5051979;28;20234;-74
2023/02/22 07:34:04;;;;;;;6.33;4.93;;;9.20;99.90;;;;;;5040213;28;20242;-74
2023/02/22 07:36:31;;;;;;;6.30;5.10;;;9.40;99.90;;;;;;5039278;28;20192;-74
2023/02/22 07:38:58;;;;;;;6.73;4.67;;;9.50;99.90;;;;;;5040928;28;20202;-74
2023/02/22 07:41:25;;;;;;;7.47;5.10;;;9.40;99.90;;;;;;5040697;28;20288;-74
2023/02/22 07:43:51;;;;;;;6.77;5.00;;;9.40;99.90;;;;;;5042281;28;20651;-74
2023/02/22 07:46:21;;;;;;;5.93;4.70;;;9.50;99.90;;;;;;5038969;28;20215;-74
2023/02/22 07:48:48;;;;;;;5.23;4.43;;;9.60;99.90;;;;;;5037127;28;21029;-74
2023/02/22 07:51:19;;;;;;;7.30;4.43;;;9.60;99.90;;;;;;5038788;28;20200;-74
2023/02/22 07:53:48;;;;;;;4.93;4.07;;;9.60;99.90;;;;;;5036939;28;20215;-74
2023/02/22 07:56:14;;;;;;;6.20;5.17;;;9.90;99.90;;;;;;5056322;28;20194;-74
2023/02/22 07:58:41;;;;;;;5.83;4.70;;;10.10;99.90;;;;;;5043574;28;20197;-74
2023/02/22 08:01:07;;;;;;;5.43;4.60;;;10.10;99.90;;;;;;5044200;28;20417;-74
2023/02/22 08:03:35;;;;;;;6.00;3.97;;;10.40;99.90;;;;;;5047153;28;20195;-74
2023/02/22 08:06:02;;;;;;;5.03;4.27;;;10.60;99.90;;;;;;5047958;28;20580;-74
2023/02/22 08:08:29;;;;;;;6.13;4.63;;;10.60;99.90;;;;;;5057629;28;20191;-74
2023/02/22 08:10:55;;;;;;;8.53;4.47;;;10.60;99.90;;;;;;5047154;28;20321;-74
2023/02/22 08:13:23;;;;;;;7.13;4.33;;;10.80;99.90;;;;;;5045304;28;20214;-74
2023/02/22 08:15:52;;;;;;;5.93;4.40;;;10.90;99.90;;;;;;5044965;28;20199;-74
2023/02/22 08:18:20;;;;;;;6.63;4.37;;;11.00;99.90;;;;;;5046960;28;20206;-74
2023/02/22 08:20:50;;;;;;;7.30;4.20;;;10.90;99.90;;;;;;5059195;28;20187;-74
2023/02/22 08:23:20;;;;;;;6.30;4.23;;;11.40;99.90;;;;;;5046497;28;20186;-74
2023/02/22 08:25:46;;;;;;;6.00;4.57;;;11.50;99.90;;;;;;5058082;28;20184;-74
2023/02/22 08:28:16;;;;;;;5.97;4.33;;;11.60;99.90;;;;;;5035969;28;20189;-74
2023/02/22 08:30:43;;;;;;;7.53;4.40;;;11.60;99.90;;;;;;5044120;28;20196;-74
2023/02/22 08:33:15;;;;;;;8.17;4.60;;;11.80;99.90;;;;;;5051501;28;20215;-74
2023/02/22 08:35:42;;;;;;;4.73;4.03;;;11.80;99.90;;;;;;5037325;28;20226;-74
2023/02/22 08:38:24;;;;;;;5.00;4.00;;;11.80;99.90;;;;;;5052128;28;20183;-74
2023/02/22 08:40:51;;;;;;;6.00;4.37;;;11.80;99.90;;;;;;5042426;28;20194;-74
2023/02/22 08:43:19;;;;;;;4.90;4.30;;;11.80;99.90;;;;;;5043647;28;20203;-74
2023/02/22 08:45:46;;;;;;;5.37;4.27;;;11.60;99.90;;;;;;5040426;28;20217;-74
2023/02/22 08:48:15;;;;;;;5.00;4.17;;;11.80;99.90;;;;;;5048882;28;20533;-74
2023/02/22 08:50:43;;;;;;;5.97;4.30;;;11.70;99.90;;;;;;5048536;28;20199;-74
2023/02/22 08:53:15;;;;;;;5.07;4.50;;;11.40;99.90;;;;;;5030946;28;20225;-74
2023/02/22 08:55:44;;;;;;;6.27;4.80;;;11.20;99.90;;;;;;5043079;28;20552;-74
2023/02/22 08:58:12;;;;;;;4.30;3.90;;;11.00;99.90;;;;;;5063802;28;20540;-74
2023/02/22 09:00:43;;;;;;;6.60;4.13;;;10.90;99.90;;;;;;5062170;28;20190;-74
2023/02/22 09:03:13;;;;;;;5.47;4.17;;;11.10;99.90;;;;;;5051081;28;20677;-74
2023/02/22 09:05:41;;;;;;;7.17;4.27;;;11.60;99.90;;;;;;5043101;28;20203;-74
2023/02/22 09:08:09;;;;;;;7.70;4.00;;;11.60;99.90;;;;;;5044887;28;20200;-74
2023/02/22 09:10:36;;;;;;;4.57;3.93;;;11.90;99.90;;;;;;5040980;28;20331;-74
2023/02/22 09:13:03;;;;;;;5.40;4.10;;;12.10;99.90;;;;;;5027434;28;20212;-74
2023/02/22 09:15:31;;;;;;;4.73;4.00;;;12.10;99.90;;;;;;5053135;28;20822;-74
2023/02/22 09:17:58;;;;;;;5.27;4.40;;;12.10;99.90;;;;;;5046814;28;20926;-74
2023/02/22 09:20:26;;;;;;;6.93;4.20;;;12.00;99.90;;;;;;5046795;28;20191;-74
2023/02/22 09:22:54;;;;;;;5.63;4.50;;;12.10;99.90;;;;;;5046039;28;20191;-74
2023/02/22 09:25:21;;;;;;;7.53;4.40;;;12.40;99.90;;;;;;5056715;28;20199;-74
2023/02/22 09:27:51;;;;;;;5.70;4.27;;;12.60;99.90;;;;;;5045614;28;20199;-74
2023/02/22 09:30:33;;;;;;;6.30;3.87;;;12.80;99.90;;;;;;5059209;28;20192;-74
2023/02/22 09:33:04;;;;;;;8.97;4.73;;;13.10;99.90;;;;;;5046130;28;20311;-74
2023/02/22 09:35:34;;;;;;;6.63;4.33;;;13.00;99.90;;;;;;5046249;28;20215;-74
2023/02/22 09:38:04;;;;;;;6.17;4.50;;;13.10;99.90;;;;;;5042236;28;20612;-74
2023/02/22 09:40:39;;;;;;;7.30;4.03;;;13.30;99.90;;;;;;5043018;28;20188;-74
2023/02/22 09:43:43;;;;;;;7.00;4.73;;;13.50;99.90;;;;;;5044699;28;20222;-74
2023/02/22 09:46:21;;;;;;;7.50;4.20;;;13.40;99.90;;;;;;5044432;28;20313;-74
2023/02/22 09:48:59;;;;;;;9.47;4.07;;;13.30;99.90;;;;;;5044870;28;20270;-74
2023/02/22 09:51:41;;;;;;;7.00;4.87;;;13.50;99.90;;;;;;5040322;28;20198;-74
2023/02/22 09:54:42;;;;;;;4.97;4.30;;;13.80;99.90;;;;;;5037430;28;20296;-74
2023/02/22 09:57:16;;;;;;;13.10;4.90;;;13.90;99.90;;;;;;5043862;28;20561;-74
2023/02/22 10:00:00;;;;;;;6.03;4.57;;;14.00;99.90;;;;;;5046774;28;20695;-74
2023/02/22 10:02:37;;;;;;;7.83;4.80;;;14.00;99.90;;;;;;5061704;28;20596;-74
2023/02/22 10:05:19;;;;;;;6.17;4.57;;;14.00;99.90;;;;;;5044904;28;20195;-74
2023/02/22 10:08:04;;;;;;;5.80;4.20;;;14.00;99.90;;;;;;5033075;28;20200;-74
2023/02/22 10:10:40;;;;;;;7.43;4.80;;;14.20;99.90;;;;;;5039545;28;20554;-74
2023/02/22 10:13:33;;;;;;;5.93;4.63;;;14.30;99.90;;;;;;5037444;28;20205;-74
2023/02/22 10:16:30;;;;;;;6.50;4.93;;;14.20;99.90;;;;;;5073029;28;20262;-74
2023/02/22 10:19:14;;;;;;;7.80;4.83;;;14.20;99.90;;;;;;5049076;28;20207;-74
2023/02/22 10:22:15;;;;;;;5.87;4.37;;;14.30;99.90;;;;;;5052156;28;20240;-74
2023/02/22 10:25:11;;;;;;;5.77;4.33;;;14.50;99.90;;;;;;5041402;28;20191;-74
2023/02/22 10:28:18;;;;;;;6.70;4.87;;;14.70;99.90;;;;;;5045239;28;20191;-74
2023/02/22 10:31:27;;;;;;;5.80;4.93;;;14.50;99.90;;;;;;5047776;28;20747;-74
2023/02/22 10:34:04;;;;;;;6.53;4.70;;;14.50;99.90;;;;;;5041217;28;20214;-74
2023/02/22 10:36:33;;;;;;;6.10;4.63;;;14.60;99.90;;;;;;5045285;28;20206;-74
2023/02/22 10:39:31;;;;;;;5.97;4.30;;;14.70;99.90;;;;;;5050848;28;20197;-74
2023/02/22 10:42:08;;;;;;;7.73;4.87;;;14.90;99.90;;;;;;5038599;28;20218;-74
2023/02/22 10:44:37;;;;;;;7.80;4.97;;;15.10;99.90;;;;;;5032553;28;20229;-74
2023/02/22 10:47:09;;;;;;;5.30;4.80;;;15.30;99.90;;;;;;5038745;28;20198;-74
2023/02/22 10:49:42;;;;;;;7.13;4.90;;;15.30;99.90;;;;;;5057931;28;20202;-74
2023/02/22 10:52:38;;;;;;;7.47;5.03;;;15.70;99.90;;;;;;5043439;28;20199;-74
2023/02/22 10:55:11;;;;;;;7.07;5.17;;;15.90;99.90;;;;;;5034101;28;20310;-74
2023/02/22 10:57:38;;;;;;;7.60;5.00;;;16.10;99.90;;;;;;5039480;28;20836;-74
2023/02/22 11:00:36;;;;;;;9.50;5.10;;;16.30;99.90;;;;;;5044049;28;20187;-74
2023/02/22 11:03:23;;;;;;;5.83;4.67;;;16.50;99.90;;;;;;5038380;28;20199;-74
2023/02/22 11:05:51;;;;;;;6.73;5.03;;;16.60;99.90;;;;;;5071869;28;20756;-74
2023/02/22 11:08:25;;;;;;;6.37;4.83;;;16.60;99.90;;;;;;5048013;28;20624;-74
2023/02/22 11:11:19;;;;;;;6.87;4.57;;;17.00;99.90;;;;;;5046190;28;20192;-74
2023/02/22 11:13:58;;;;;;;7.20;5.03;;;17.20;99.90;;;;;;5040746;28;20204;-74
2023/02/22 11:16:50;;;;;;;5.10;4.60;;;17.20;99.90;;;;;;5038786;28;20191;-74
2023/02/22 11:19:29;;;;;;;5.73;4.70;;;17.40;99.90;;;;;;5063933;28;20198;-74
2023/02/22 11:22:19;;;;;;;5.87;4.90;;;18.10;99.90;;;;;;5053706;28;20265;-74
2023/02/22 11:25:00;;;;;;;7.57;4.90;;;17.30;99.90;;;;;;5038747;28;20195;-74
2023/02/22 11:27:38;;;;;;;8.63;4.97;;;16.20;99.90;;;;;;5061079;28;20179;-74
2023/02/22 11:30:31;;;;;;;7.60;4.77;;;15.70;99.90;;;;;;5021605;28;20644;-74
2023/02/22 11:33:28;;;;;;;7.07;4.83;;;15.80;99.90;;;;;;5057129;28;20248;-74
2023/02/22 11:35:59;;;;;;;6.67;5.07;;;15.80;99.90;;;;;;5053658;28;20199;-74
2023/02/22 11:38:31;;;;;;;5.60;4.70;;;15.90;99.90;;;;;;5042769;28;20195;-74
2023/02/22 11:41:17;;;;;;;7.13;4.60;;;15.70;99.90;;;;;;5040478;28;20415;-74
2023/02/22 11:43:48;;;;;;;6.40;4.80;;;15.70;99.90;;;;;;5043719;28;20199;-74
2023/02/22 11:46:25;;;;;;;6.53;4.80;;;15.70;99.90;;;;;;5057834;28;20664;-74
2023/02/22 11:49:10;;;;;;;8.00;5.27;;;15.90;99.90;;;;;;5037384;28;20256;-74
2023/02/22 11:52:02;;;;;;;11.87;4.97;;;15.90;99.90;;;;;;5043226;28;20179;-74
2023/02/22 11:54:43;;;;;;;6.63;4.40;;;15.90;99.90;;;;;;5044675;28;20204;-74
2023/02/22 11:57:41;;;;;;;5.77;4.80;;;15.90;99.90;;;;;;5055737;28;20725;-74
2023/02/22 12:01:00;;;;;;;7.63;4.73;;;15.70;99.90;;;;;;5039427;28;20261;-74
2023/02/22 12:03:45;;;;;;;6.37;4.60;;;15.70;99.90;;;;;;5042616;28;20196;-74
2023/02/22 12:06:39;;;;;;;6.77;4.73;;;15.30;99.90;;;;;;5042479;28;20199;-74
2023/02/22 12:09:52;;;;;;;5.60;4.33;;;15.60;99.90;;;;;;5054224;28;20274;-74
2023/02/22 12:13:01;;;;;;;7.40;4.30;;;15.80;99.90;;;;;;5056027;28;20754;-74
2023/02/22 12:15:46;;;;;;;5.43;4.60;;;15.80;99.90;;;;;;5048431;28;20199;-74
2023/02/22 12:18:33;;;;;;;7.13;4.70;;;15.90;99.90;;;;;;5032442;28;20190;-74
2023/02/22 12:21:06;;;;;;;6.93;4.90;;;15.90;99.90;;;;;;5052751;28;20405;-74
2023/02/22 12:24:06;;;;;;;5.87;4.30;;;15.80;99.90;;;;;;5041822;28;20752;-74
2023/02/22 12:26:40;;;;;;;5.97;4.30;;;15.50;99.90;;;;;;5065503;28;20180;-74
2023/02/22 12:29:38;;;;;;;10.57;5.17;;;15.50;99.90;;;;;;5043119;28;20225;-74
2023/02/22 12:32:32;;;;;;;7.87;5.03;;;15.70;99.90;;;;;;5042720;28;20211;-74
2023/02/22 12:35:18;;;;;;;5.97;4.53;;;15.70;99.90;;;;;;5043540;28;20226;-74
2023/02/22 12:37:55;;;;;;;6.17;4.83;;;15.60;99.90;;;;;;5044798;28;20176;-74
2023/02/22 12:40:52;;;;;;;7.87;4.77;;;15.30;99.90;;;;;;5039787;28;20200;-74
2023/02/22 12:43:43;;;;;;;6.57;4.70;;;15.00;99.90;;;;;;5042825;28;20183;-74
2023/02/22 12:46:28;;;;;;;8.00;4.97;;;15.40;99.90;;;;;;5051647;28;20213;-74
2023/02/22 12:49:29;;;;;;;6.37;5.13;;;15.40;99.90;;;;;;5047573;28;20190;-74
2023/02/22 12:52:12;;;;;;;5.60;4.70;;;15.50;99.90;;;;;;5035985;28;20188;-74
2023/02/22 12:54:52;;;;;;;5.53;4.90;;;14.90;99.90;;;;;;5038245;28;20210;-74
2023/02/22 12:57:46;;;;;;;7.90;5.13;;;15.30;99.90;;;;;;5041556;28;20302;-74
2023/02/22 13:00:47;;;;;;;7.87;4.87;;;15.50;99.90;;;;;;5041074;28;20179;-74
2023/02/22 13:03:40;;;;;;;5.70;5.03;;;15.40;99.90;;;;;;5044528;28;20643;-74
2023/02/22 13:06:31;;;;;;;7.27;4.70;;;15.50;99.90;;;;;;5047629;28;20195;-74
2023/02/22 13:09:35;;;;;;;6.73;5.00;;;14.80;99.90;;;;;;5027886;28;20897;-74
2023/02/22 13:12:19;;;;;;;6.27;5.30;;;14.80;99.90;;;;;;5033869;28;20610;-74
2023/02/22 13:15:35;;;;;;;8.30;5.27;;;14.80;99.90;;;;;;5038644;28;20211;-74
2023/02/22 13:18:34;;;;;;;6.00;4.83;;;15.00;99.90;;;;;;5037973;28;20193;-74
2023/02/22 13:21:28;;;;;;;6.97;4.93;;;15.00;99.90;;;;;;5051638;28;20699;-74
2023/02/22 13:24:20;;;;;;;8.27;5.20;;;14.90;99.90;;;;;;5047418;28;20305;-74
2023/02/22 13:27:09;;;;;;;7.60;4.87;;;14.80;99.90;;;;;;5044771;28;20632;-74
2023/02/22 13:29:47;;;;;;;6.97;4.80;;;14.80;99.90;;;;;;5043146;28;20652;-73
2023/02/22 13:32:50;;;;;;;6.63;4.97;;;14.80;99.90;;;;;;5042871;28;20961;-74
2023/02/22 13:35:33;;;;;;;6.63;4.90;;;14.70;99.90;;;;;;5030071;28;20221;-74
2023/02/22 13:38:37;;;;;;;7.70;5.13;;;14.80;99.90;;;;;;5043928;28;20290;-74